sensor_id;sensor_type;location;lat;lon;timestamp;temperature;humidity
55313;DHT22;46892;45.668;11.756;2024-03-22T00:00:55;9.90;86.80
55313;DHT22;46892;45.668;11.756;2024-03-22T00:03:22;9.90;87.30
55313;DHT22;46892;45.668;11.756;2024-03-22T00:05:47;9.90;86.80
55313;DHT22;46892;45.668;11.756;2024-03-22T00:08:13;9.80;85.50
55313;DHT22;46892;45.668;11.756;2024-03-22T00:10:39;9.70;85.50
55313;DHT22;46892;45.668;11.756;2024-03-22T00:13:04;9.80;86.10
55313;DHT22;46892;45.668;11.756;2024-03-22T00:15:30;9.70;87.00
55313;DHT22;46892;45.668;11.756;2024-03-22T00:17:56;9.70;86.80
55313;DHT22;46892;45.668;11.756;2024-03-22T00:20:22;9.70;86.50
55313;DHT22;46892;45.668;11.756;2024-03-22T00:22:47;9.60;86.00
55313;DHT22;46892;45.668;11.756;2024-03-22T00:25:13;9.50;85.60
55313;DHT22;46892;45.668;11.756;2024-03-22T00:27:39;9.40;85.60
55313;DHT22;46892;45.668;11.756;2024-03-22T00:30:05;9.30;86.70
55313;DHT22;46892;45.668;11.756;2024-03-22T00:32:31;9.30;87.30
55313;DHT22;46892;45.668;11.756;2024-03-22T00:34:56;9.30;87.20
55313;DHT22;46892;45.668;11.756;2024-03-22T00:37:22;9.30;86.00
55313;DHT22;46892;45.668;11.756;2024-03-22T00:39:48;9.10;86.30
55313;DHT22;46892;45.668;11.756;2024-03-22T00:42:13;9.10;87.20
55313;DHT22;46892;45.668;11.756;2024-03-22T00:44:39;9.10;87.30
55313;DHT22;46892;45.668;11.756;2024-03-22T00:47:05;9.10;88.20
55313;DHT22;46892;45.668;11.756;2024-03-22T00:49:31;9.20;87.80
55313;DHT22;46892;45.668;11.756;2024-03-22T00:51:57;9.20;87.20
55313;DHT22;46892;45.668;11.756;2024-03-22T00:54:23;8.90;86.00
55313;DHT22;46892;45.668;11.756;2024-03-22T00:56:48;8.80;87.40
55313;DHT22;46892;45.668;11.756;2024-03-22T00:59:14;8.80;87.80
55313;DHT22;46892;45.668;11.756;2024-03-22T01:01:40;8.90;87.80
55313;DHT22;46892;45.668;11.756;2024-03-22T01:04:06;8.90;88.50
55313;DHT22;46892;45.668;11.756;2024-03-22T01:06:34;8.90;87.70
55313;DHT22;46892;45.668;11.756;2024-03-22T01:09:00;9.00;88.20
55313;DHT22;46892;45.668;11.756;2024-03-22T01:11:25;9.00;88.20
55313;DHT22;46892;45.668;11.756;2024-03-22T01:13:51;9.00;88.40
55313;DHT22;46892;45.668;11.756;2024-03-22T01:16:17;9.10;88.50
55313;DHT22;46892;45.668;11.756;2024-03-22T01:18:42;9.20;88.10
55313;DHT22;46892;45.668;11.756;2024-03-22T01:21:08;9.30;88.10
55313;DHT22;46892;45.668;11.756;2024-03-22T01:23:34;9.30;87.60
55313;DHT22;46892;45.668;11.756;2024-03-22T01:25:59;9.30;87.10
55313;DHT22;46892;45.668;11.756;2024-03-22T01:28:25;9.30;87.50
55313;DHT22;46892;45.668;11.756;2024-03-22T01:30:51;9.40;87.30
55313;DHT22;46892;45.668;11.756;2024-03-22T01:33:16;9.30;86.70
55313;DHT22;46892;45.668;11.756;2024-03-22T01:35:42;9.30;86.40
55313;DHT22;46892;45.668;11.756;2024-03-22T01:38:08;9.20;86.30
55313;DHT22;46892;45.668;11.756;2024-03-22T01:40:33;9.10;87.30
55313;DHT22;46892;45.668;11.756;2024-03-22T01:43:00;9.20;87.50
55313;DHT22;46892;45.668;11.756;2024-03-22T01:45:25;9.20;87.00
55313;DHT22;46892;45.668;11.756;2024-03-22T01:47:52;9.20;87.40
55313;DHT22;46892;45.668;11.756;2024-03-22T01:50:22;9.10;87.30
55313;DHT22;46892;45.668;11.756;2024-03-22T01:52:48;9.20;87.50
55313;DHT22;46892;45.668;11.756;2024-03-22T01:55:14;9.20;87.30
55313;DHT22;46892;45.668;11.756;2024-03-22T01:57:39;9.20;87.10
55313;DHT22;46892;45.668;11.756;2024-03-22T02:00:06;9.10;87.50
55313;DHT22;46892;45.668;11.756;2024-03-22T02:02:34;9.20;87.70
55313;DHT22;46892;45.668;11.756;2024-03-22T02:05:05;9.20;87.30
55313;DHT22;46892;45.668;11.756;2024-03-22T02:07:36;9.20;87.20
55313;DHT22;46892;45.668;11.756;2024-03-22T02:10:02;9.20;87.40
55313;DHT22;46892;45.668;11.756;2024-03-22T02:20:55;9.30;87.90
55313;DHT22;46892;45.668;11.756;2024-03-22T02:23:40;9.20;87.30
55313;DHT22;46892;45.668;11.756;2024-03-22T02:26:06;9.20;85.90
55313;DHT22;46892;45.668;11.756;2024-03-22T02:28:33;9.20;85.60
55313;DHT22;46892;45.668;11.756;2024-03-22T02:31:08;9.00;86.70
55313;DHT22;46892;45.668;11.756;2024-03-22T02:33:33;9.00;86.70
55313;DHT22;46892;45.668;11.756;2024-03-22T02:35:59;9.00;86.80
55313;DHT22;46892;45.668;11.756;2024-03-22T02:38:25;9.00;86.90
55313;DHT22;46892;45.668;11.756;2024-03-22T02:40:52;9.00;87.20
55313;DHT22;46892;45.668;11.756;2024-03-22T02:43:18;8.90;87.40
55313;DHT22;46892;45.668;11.756;2024-03-22T02:45:44;9.00;88.00
55313;DHT22;46892;45.668;11.756;2024-03-22T02:48:10;9.00;87.60
55313;DHT22;46892;45.668;11.756;2024-03-22T02:50:36;9.00;87.70
55313;DHT22;46892;45.668;11.756;2024-03-22T02:53:03;9.00;87.40
55313;DHT22;46892;45.668;11.756;2024-03-22T02:55:29;8.90;87.40
55313;DHT22;46892;45.668;11.756;2024-03-22T02:57:56;8.90;87.60
55313;DHT22;46892;45.668;11.756;2024-03-22T03:00:23;8.90;88.00
55313;DHT22;46892;45.668;11.756;2024-03-22T03:02:49;8.90;87.90
55313;DHT22;46892;45.668;11.756;2024-03-22T03:05:15;8.80;87.50
55313;DHT22;46892;45.668;11.756;2024-03-22T03:07:41;8.70;86.80
55313;DHT22;46892;45.668;11.756;2024-03-22T03:10:07;8.70;86.90
55313;DHT22;46892;45.668;11.756;2024-03-22T03:12:33;8.70;87.70
55313;DHT22;46892;45.668;11.756;2024-03-22T03:14:58;8.80;86.90
55313;DHT22;46892;45.668;11.756;2024-03-22T03:17:24;8.70;86.40
55313;DHT22;46892;45.668;11.756;2024-03-22T03:19:50;8.70;85.80
55313;DHT22;46892;45.668;11.756;2024-03-22T03:22:15;8.70;86.10
55313;DHT22;46892;45.668;11.756;2024-03-22T03:24:41;8.60;86.10
55313;DHT22;46892;45.668;11.756;2024-03-22T03:27:07;8.60;87.10
55313;DHT22;46892;45.668;11.756;2024-03-22T03:29:33;8.60;87.40
55313;DHT22;46892;45.668;11.756;2024-03-22T03:31:58;8.70;87.50
55313;DHT22;46892;45.668;11.756;2024-03-22T03:34:24;8.80;87.40
55313;DHT22;46892;45.668;11.756;2024-03-22T03:36:50;8.80;86.60
55313;DHT22;46892;45.668;11.756;2024-03-22T03:39:15;8.70;86.60
55313;DHT22;46892;45.668;11.756;2024-03-22T03:41:41;8.80;86.40
55313;DHT22;46892;45.668;11.756;2024-03-22T03:44:07;8.80;86.30
55313;DHT22;46892;45.668;11.756;2024-03-22T03:46:33;8.70;86.00
55313;DHT22;46892;45.668;11.756;2024-03-22T03:48:59;8.50;86.50
55313;DHT22;46892;45.668;11.756;2024-03-22T03:51:24;8.30;87.00
55313;DHT22;46892;45.668;11.756;2024-03-22T03:53:50;8.30;88.30
55313;DHT22;46892;45.668;11.756;2024-03-22T03:56:16;8.50;88.60
55313;DHT22;46892;45.668;11.756;2024-03-22T03:58:41;8.60;87.60
55313;DHT22;46892;45.668;11.756;2024-03-22T04:01:08;8.80;87.20
55313;DHT22;46892;45.668;11.756;2024-03-22T04:03:34;8.80;87.40
55313;DHT22;46892;45.668;11.756;2024-03-22T04:06:00;8.80;86.70
55313;DHT22;46892;45.668;11.756;2024-03-22T04:08:26;8.90;87.10
55313;DHT22;46892;45.668;11.756;2024-03-22T04:10:53;9.00;86.30
55313;DHT22;46892;45.668;11.756;2024-03-22T04:13:18;9.00;85.80
55313;DHT22;46892;45.668;11.756;2024-03-22T04:15:44;9.00;85.00
55313;DHT22;46892;45.668;11.756;2024-03-22T04:18:10;9.00;85.10
55313;DHT22;46892;45.668;11.756;2024-03-22T04:20:35;8.80;84.40
55313;DHT22;46892;45.668;11.756;2024-03-22T04:23:01;8.30;84.10
55313;DHT22;46892;45.668;11.756;2024-03-22T04:25:27;8.30;86.90
55313;DHT22;46892;45.668;11.756;2024-03-22T04:27:53;8.50;87.40
55313;DHT22;46892;45.668;11.756;2024-03-22T04:30:18;8.80;86.80
55313;DHT22;46892;45.668;11.756;2024-03-22T04:32:46;9.10;85.40
55313;DHT22;46892;45.668;11.756;2024-03-22T04:35:12;9.30;84.00
55313;DHT22;46892;45.668;11.756;2024-03-22T04:37:38;9.50;83.40
55313;DHT22;46892;45.668;11.756;2024-03-22T04:40:04;9.70;82.30
55313;DHT22;46892;45.668;11.756;2024-03-22T04:42:30;9.60;82.20
55313;DHT22;46892;45.668;11.756;2024-03-22T04:44:55;9.60;82.10
55313;DHT22;46892;45.668;11.756;2024-03-22T04:47:21;9.70;81.80
55313;DHT22;46892;45.668;11.756;2024-03-22T04:49:47;9.70;81.50
55313;DHT22;46892;45.668;11.756;2024-03-22T04:52:12;9.80;80.80
55313;DHT22;46892;45.668;11.756;2024-03-22T04:54:38;9.90;80.40
55313;DHT22;46892;45.668;11.756;2024-03-22T04:57:04;9.90;81.10
55313;DHT22;46892;45.668;11.756;2024-03-22T04:59:29;9.90;80.50
55313;DHT22;46892;45.668;11.756;2024-03-22T05:01:55;9.80;79.40
55313;DHT22;46892;45.668;11.756;2024-03-22T05:04:21;9.70;80.40
55313;DHT22;46892;45.668;11.756;2024-03-22T05:06:47;9.50;80.70
55313;DHT22;46892;45.668;11.756;2024-03-22T05:09:12;9.50;80.90
55313;DHT22;46892;45.668;11.756;2024-03-22T05:11:38;9.60;80.70
55313;DHT22;46892;45.668;11.756;2024-03-22T05:14:04;9.60;80.00
55313;DHT22;46892;45.668;11.756;2024-03-22T05:16:29;9.60;80.00
55313;DHT22;46892;45.668;11.756;2024-03-22T05:18:55;9.50;80.20
55313;DHT22;46892;45.668;11.756;2024-03-22T05:21:21;9.60;80.40
55313;DHT22;46892;45.668;11.756;2024-03-22T05:23:47;9.60;80.20
55313;DHT22;46892;45.668;11.756;2024-03-22T05:26:12;9.60;79.90
55313;DHT22;46892;45.668;11.756;2024-03-22T05:28:38;9.50;80.30
55313;DHT22;46892;45.668;11.756;2024-03-22T05:31:04;9.40;81.20
55313;DHT22;46892;45.668;11.756;2024-03-22T05:33:29;9.30;81.30
55313;DHT22;46892;45.668;11.756;2024-03-22T05:35:55;9.30;81.10
55313;DHT22;46892;45.668;11.756;2024-03-22T05:38:21;9.40;81.30
55313;DHT22;46892;45.668;11.756;2024-03-22T05:40:46;9.50;80.70
55313;DHT22;46892;45.668;11.756;2024-03-22T05:43:13;9.60;79.50
55313;DHT22;46892;45.668;11.756;2024-03-22T05:45:39;9.70;79.10
55313;DHT22;46892;45.668;11.756;2024-03-22T05:48:05;9.80;78.70
55313;DHT22;46892;45.668;11.756;2024-03-22T05:50:31;9.90;78.40
55313;DHT22;46892;45.668;11.756;2024-03-22T05:52:57;10.00;78.90
55313;DHT22;46892;45.668;11.756;2024-03-22T05:55:22;10.00;79.30
55313;DHT22;46892;45.668;11.756;2024-03-22T05:57:49;10.00;79.50
55313;DHT22;46892;45.668;11.756;2024-03-22T06:00:15;10.00;80.00
55313;DHT22;46892;45.668;11.756;2024-03-22T06:02:40;10.00;79.60
55313;DHT22;46892;45.668;11.756;2024-03-22T06:05:06;10.00;79.70
55313;DHT22;46892;45.668;11.756;2024-03-22T06:07:32;10.20;79.40
55313;DHT22;46892;45.668;11.756;2024-03-22T06:10:06;10.40;78.80
55313;DHT22;46892;45.668;11.756;2024-03-22T06:12:32;10.50;78.80
55313;DHT22;46892;45.668;11.756;2024-03-22T06:14:57;10.70;78.20
55313;DHT22;46892;45.668;11.756;2024-03-22T06:17:23;10.90;77.80
55313;DHT22;46892;45.668;11.756;2024-03-22T06:19:49;11.10;77.70
55313;DHT22;46892;45.668;11.756;2024-03-22T06:22:14;11.20;77.90
55313;DHT22;46892;45.668;11.756;2024-03-22T06:24:40;11.30;79.90
55313;DHT22;46892;45.668;11.756;2024-03-22T06:27:06;11.40;79.30
55313;DHT22;46892;45.668;11.756;2024-03-22T06:29:33;11.60;78.40
55313;DHT22;46892;45.668;11.756;2024-03-22T06:31:58;11.70;77.20
55313;DHT22;46892;45.668;11.756;2024-03-22T06:34:24;11.80;76.60
55313;DHT22;46892;45.668;11.756;2024-03-22T06:36:50;11.80;76.40
55313;DHT22;46892;45.668;11.756;2024-03-22T06:39:16;12.00;76.50
55313;DHT22;46892;45.668;11.756;2024-03-22T06:41:42;12.10;75.70
55313;DHT22;46892;45.668;11.756;2024-03-22T06:44:08;12.30;79.30
55313;DHT22;46892;45.668;11.756;2024-03-22T06:46:37;12.70;81.20
55313;DHT22;46892;45.668;11.756;2024-03-22T06:49:03;12.80;78.60
55313;DHT22;46892;45.668;11.756;2024-03-22T06:51:29;13.00;77.20
55313;DHT22;46892;45.668;11.756;2024-03-22T06:53:54;13.10;76.30
55313;DHT22;46892;45.668;11.756;2024-03-22T06:56:20;13.20;76.70
55313;DHT22;46892;45.668;11.756;2024-03-22T06:58:49;13.30;75.50
55313;DHT22;46892;45.668;11.756;2024-03-22T07:01:14;13.30;75.40
55313;DHT22;46892;45.668;11.756;2024-03-22T07:03:41;13.50;77.60
55313;DHT22;46892;45.668;11.756;2024-03-22T07:06:11;13.60;76.30
55313;DHT22;46892;45.668;11.756;2024-03-22T07:08:36;13.70;74.90
55313;DHT22;46892;45.668;11.756;2024-03-22T07:11:05;13.70;76.40
55313;DHT22;46892;45.668;11.756;2024-03-22T07:13:31;13.80;72.80
55313;DHT22;46892;45.668;11.756;2024-03-22T07:15:57;14.00;72.80
55313;DHT22;46892;45.668;11.756;2024-03-22T07:18:26;14.00;71.20
55313;DHT22;46892;45.668;11.756;2024-03-22T07:20:52;14.10;72.30
55313;DHT22;46892;45.668;11.756;2024-03-22T07:23:18;14.20;70.70
55313;DHT22;46892;45.668;11.756;2024-03-22T07:25:44;14.30;68.20
55313;DHT22;46892;45.668;11.756;2024-03-22T07:28:11;14.50;70.50
55313;DHT22;46892;45.668;11.756;2024-03-22T07:30:37;14.50;68.40
55313;DHT22;46892;45.668;11.756;2024-03-22T07:33:03;14.60;67.80
55313;DHT22;46892;45.668;11.756;2024-03-22T07:35:29;14.70;67.60
55313;DHT22;46892;45.668;11.756;2024-03-22T07:37:56;14.80;67.60
55313;DHT22;46892;45.668;11.756;2024-03-22T07:40:21;14.80;66.20
55313;DHT22;46892;45.668;11.756;2024-03-22T07:42:47;14.90;66.30
55313;DHT22;46892;45.668;11.756;2024-03-22T07:45:13;15.00;66.10
55313;DHT22;46892;45.668;11.756;2024-03-22T07:47:40;15.10;67.80
55313;DHT22;46892;45.668;11.756;2024-03-22T07:50:08;15.30;66.80
55313;DHT22;46892;45.668;11.756;2024-03-22T07:52:34;15.50;70.80
55313;DHT22;46892;45.668;11.756;2024-03-22T07:55:00;15.80;66.30
55313;DHT22;46892;45.668;11.756;2024-03-22T07:57:31;16.20;62.90
55313;DHT22;46892;45.668;11.756;2024-03-22T07:59:57;16.70;63.60
55313;DHT22;46892;45.668;11.756;2024-03-22T08:02:23;16.80;59.50
55313;DHT22;46892;45.668;11.756;2024-03-22T08:04:49;16.80;59.50
55313;DHT22;46892;45.668;11.756;2024-03-22T08:07:14;17.20;65.70
55313;DHT22;46892;45.668;11.756;2024-03-22T08:09:40;17.70;64.50
55313;DHT22;46892;45.668;11.756;2024-03-22T08:12:06;18.20;65.70
55313;DHT22;46892;45.668;11.756;2024-03-22T08:14:32;18.40;61.30
55313;DHT22;46892;45.668;11.756;2024-03-22T08:16:58;18.30;62.30
55313;DHT22;46892;45.668;11.756;2024-03-22T08:19:23;18.60;58.10
55313;DHT22;46892;45.668;11.756;2024-03-22T08:21:49;18.30;57.60
55313;DHT22;46892;45.668;11.756;2024-03-22T08:24:14;18.10;57.50
55313;DHT22;46892;45.668;11.756;2024-03-22T08:26:40;17.90;57.70
55313;DHT22;46892;45.668;11.756;2024-03-22T08:29:06;17.80;56.60
55313;DHT22;46892;45.668;11.756;2024-03-22T08:31:31;17.70;57.40
55313;DHT22;46892;45.668;11.756;2024-03-22T08:33:58;17.60;59.10
55313;DHT22;46892;45.668;11.756;2024-03-22T08:36:24;17.50;58.70
55313;DHT22;46892;45.668;11.756;2024-03-22T08:38:50;17.50;64.20
55313;DHT22;46892;45.668;11.756;2024-03-22T08:41:16;17.80;65.00
55313;DHT22;46892;45.668;11.756;2024-03-22T08:43:41;18.20;62.60
55313;DHT22;46892;45.668;11.756;2024-03-22T08:46:07;18.40;59.20
55313;DHT22;46892;45.668;11.756;2024-03-22T08:48:33;18.70;57.30
55313;DHT22;46892;45.668;11.756;2024-03-22T08:50:59;18.80;62.80
55313;DHT22;46892;45.668;11.756;2024-03-22T08:53:24;19.00;62.90
55313;DHT22;46892;45.668;11.756;2024-03-22T08:55:50;19.30;63.20
55313;DHT22;46892;45.668;11.756;2024-03-22T08:58:16;19.50;61.50
55313;DHT22;46892;45.668;11.756;2024-03-22T09:00:44;19.60;60.30
55313;DHT22;46892;45.668;11.756;2024-03-22T09:03:10;19.60;60.60
55313;DHT22;46892;45.668;11.756;2024-03-22T09:05:35;19.60;57.80
55313;DHT22;46892;45.668;11.756;2024-03-22T09:08:02;19.40;61.20
55313;DHT22;46892;45.668;11.756;2024-03-22T09:10:29;19.40;57.60
55313;DHT22;46892;45.668;11.756;2024-03-22T09:12:55;19.40;60.50
55313;DHT22;46892;45.668;11.756;2024-03-22T09:15:21;19.50;60.10
55313;DHT22;46892;45.668;11.756;2024-03-22T09:17:47;19.70;57.20
55313;DHT22;46892;45.668;11.756;2024-03-22T09:20:13;19.60;57.00
55313;DHT22;46892;45.668;11.756;2024-03-22T09:22:39;19.60;57.50
55313;DHT22;46892;45.668;11.756;2024-03-22T09:25:05;19.40;57.40
55313;DHT22;46892;45.668;11.756;2024-03-22T09:27:31;19.40;57.10
55313;DHT22;46892;45.668;11.756;2024-03-22T09:29:58;19.50;58.10
55313;DHT22;46892;45.668;11.756;2024-03-22T09:32:24;19.50;56.50
55313;DHT22;46892;45.668;11.756;2024-03-22T09:34:52;19.60;55.80
55313;DHT22;46892;45.668;11.756;2024-03-22T09:37:18;19.60;56.30
55313;DHT22;46892;45.668;11.756;2024-03-22T09:39:44;19.70;57.00
55313;DHT22;46892;45.668;11.756;2024-03-22T09:42:15;19.70;56.90
55313;DHT22;46892;45.668;11.756;2024-03-22T09:44:47;19.70;58.30
55313;DHT22;46892;45.668;11.756;2024-03-22T09:47:14;19.80;59.10
55313;DHT22;46892;45.668;11.756;2024-03-22T09:49:41;19.80;58.00
55313;DHT22;46892;45.668;11.756;2024-03-22T09:52:12;19.80;55.70
55313;DHT22;46892;45.668;11.756;2024-03-22T09:54:38;19.80;58.70
55313;DHT22;46892;45.668;11.756;2024-03-22T09:57:04;19.90;55.40
55313;DHT22;46892;45.668;11.756;2024-03-22T09:59:32;19.80;53.90
55313;DHT22;46892;45.668;11.756;2024-03-22T10:01:58;19.80;53.90
55313;DHT22;46892;45.668;11.756;2024-03-22T10:04:25;19.90;54.90
55313;DHT22;46892;45.668;11.756;2024-03-22T10:06:51;19.80;55.40
55313;DHT22;46892;45.668;11.756;2024-03-22T10:09:17;19.90;56.60
55313;DHT22;46892;45.668;11.756;2024-03-22T10:11:44;19.90;53.40
55313;DHT22;46892;45.668;11.756;2024-03-22T10:14:10;19.90;55.00
55313;DHT22;46892;45.668;11.756;2024-03-22T10:16:36;19.90;54.60
55313;DHT22;46892;45.668;11.756;2024-03-22T10:19:02;19.90;56.40
55313;DHT22;46892;45.668;11.756;2024-03-22T10:21:28;19.90;53.60
55313;DHT22;46892;45.668;11.756;2024-03-22T10:23:54;19.80;55.50
55313;DHT22;46892;45.668;11.756;2024-03-22T10:26:20;19.80;53.50
55313;DHT22;46892;45.668;11.756;2024-03-22T10:28:46;19.70;52.90
55313;DHT22;46892;45.668;11.756;2024-03-22T10:31:13;19.70;53.20
55313;DHT22;46892;45.668;11.756;2024-03-22T10:33:40;19.70;53.80
55313;DHT22;46892;45.668;11.756;2024-03-22T10:36:07;19.60;54.00
55313;DHT22;46892;45.668;11.756;2024-03-22T10:38:38;19.70;56.90
55313;DHT22;46892;45.668;11.756;2024-03-22T10:41:04;19.70;56.00
55313;DHT22;46892;45.668;11.756;2024-03-22T10:43:30;19.80;53.80
55313;DHT22;46892;45.668;11.756;2024-03-22T10:46:01;19.80;54.30
55313;DHT22;46892;45.668;11.756;2024-03-22T10:48:29;19.80;55.10
55313;DHT22;46892;45.668;11.756;2024-03-22T10:50:59;19.80;54.60
55313;DHT22;46892;45.668;11.756;2024-03-22T10:53:25;19.90;54.30
55313;DHT22;46892;45.668;11.756;2024-03-22T10:55:53;20.00;51.40
55313;DHT22;46892;45.668;11.756;2024-03-22T10:58:23;20.00;52.80
55313;DHT22;46892;45.668;11.756;2024-03-22T11:00:54;20.00;56.00
55313;DHT22;46892;45.668;11.756;2024-03-22T11:03:21;20.10;53.90
55313;DHT22;46892;45.668;11.756;2024-03-22T11:05:50;20.10;53.90
55313;DHT22;46892;45.668;11.756;2024-03-22T11:08:28;20.10;52.30
55313;DHT22;46892;45.668;11.756;2024-03-22T11:10:56;20.10;54.80
55313;DHT22;46892;45.668;11.756;2024-03-22T11:13:22;20.10;51.10
55313;DHT22;46892;45.668;11.756;2024-03-22T11:15:51;20.20;51.80
55313;DHT22;46892;45.668;11.756;2024-03-22T11:18:17;20.20;52.80
55313;DHT22;46892;45.668;11.756;2024-03-22T11:20:43;20.20;52.40
55313;DHT22;46892;45.668;11.756;2024-03-22T11:23:10;20.10;50.50
55313;DHT22;46892;45.668;11.756;2024-03-22T11:25:36;20.10;52.70
55313;DHT22;46892;45.668;11.756;2024-03-22T11:28:02;20.20;52.70
55313;DHT22;46892;45.668;11.756;2024-03-22T11:30:32;20.30;49.90
55313;DHT22;46892;45.668;11.756;2024-03-22T11:33:01;20.30;50.30
55313;DHT22;46892;45.668;11.756;2024-03-22T11:35:27;20.30;51.10
55313;DHT22;46892;45.668;11.756;2024-03-22T11:37:53;20.30;49.40
55313;DHT22;46892;45.668;11.756;2024-03-22T11:40:19;20.30;48.90
55313;DHT22;46892;45.668;11.756;2024-03-22T11:42:47;20.20;50.40
55313;DHT22;46892;45.668;11.756;2024-03-22T11:45:15;20.10;52.10
55313;DHT22;46892;45.668;11.756;2024-03-22T11:47:42;20.20;51.80
55313;DHT22;46892;45.668;11.756;2024-03-22T11:50:08;20.10;49.50
55313;DHT22;46892;45.668;11.756;2024-03-22T11:52:35;20.10;53.70
55313;DHT22;46892;45.668;11.756;2024-03-22T11:55:02;20.30;56.10
55313;DHT22;46892;45.668;11.756;2024-03-22T11:57:28;20.30;51.70
55313;DHT22;46892;45.668;11.756;2024-03-22T11:59:59;20.30;51.70
55313;DHT22;46892;45.668;11.756;2024-03-22T12:02:25;20.30;52.10
55313;DHT22;46892;45.668;11.756;2024-03-22T12:04:51;20.20;52.10
55313;DHT22;46892;45.668;11.756;2024-03-22T12:07:17;20.30;54.50
55313;DHT22;46892;45.668;11.756;2024-03-22T12:09:44;20.30;51.20
55313;DHT22;46892;45.668;11.756;2024-03-22T12:12:11;20.30;50.30
55313;DHT22;46892;45.668;11.756;2024-03-22T12:14:38;20.30;52.80
55313;DHT22;46892;45.668;11.756;2024-03-22T12:17:07;20.30;53.80
55313;DHT22;46892;45.668;11.756;2024-03-22T12:19:34;20.20;52.40
55313;DHT22;46892;45.668;11.756;2024-03-22T12:22:00;20.30;52.90
55313;DHT22;46892;45.668;11.756;2024-03-22T12:24:27;20.30;52.30
55313;DHT22;46892;45.668;11.756;2024-03-22T12:26:53;20.30;53.00
55313;DHT22;46892;45.668;11.756;2024-03-22T12:29:19;20.30;53.00
55313;DHT22;46892;45.668;11.756;2024-03-22T12:31:46;20.30;51.00
55313;DHT22;46892;45.668;11.756;2024-03-22T12:34:12;20.30;51.90
55313;DHT22;46892;45.668;11.756;2024-03-22T12:36:38;20.40;52.60
55313;DHT22;46892;45.668;11.756;2024-03-22T12:39:04;20.50;53.30
55313;DHT22;46892;45.668;11.756;2024-03-22T12:41:30;20.50;52.40
55313;DHT22;46892;45.668;11.756;2024-03-22T12:46:51;20.50;51.50
55313;DHT22;46892;45.668;11.756;2024-03-22T12:49:17;20.50;49.30
55313;DHT22;46892;45.668;11.756;2024-03-22T12:51:43;20.40;50.50
55313;DHT22;46892;45.668;11.756;2024-03-22T12:54:09;20.40;53.20
55313;DHT22;46892;45.668;11.756;2024-03-22T12:56:35;20.40;53.90
55313;DHT22;46892;45.668;11.756;2024-03-22T12:59:02;20.40;51.90
55313;DHT22;46892;45.668;11.756;2024-03-22T13:01:28;20.40;52.90
55313;DHT22;46892;45.668;11.756;2024-03-22T13:03:54;20.40;53.20
55313;DHT22;46892;45.668;11.756;2024-03-22T13:06:20;20.40;51.90
55313;DHT22;46892;45.668;11.756;2024-03-22T13:08:46;20.50;54.30
55313;DHT22;46892;45.668;11.756;2024-03-22T13:11:12;20.40;53.60
55313;DHT22;46892;45.668;11.756;2024-03-22T13:13:39;20.50;52.10
55313;DHT22;46892;45.668;11.756;2024-03-22T13:16:05;20.50;51.40
55313;DHT22;46892;45.668;11.756;2024-03-22T13:18:32;20.50;52.90
55313;DHT22;46892;45.668;11.756;2024-03-22T13:20:58;20.50;51.60
55313;DHT22;46892;45.668;11.756;2024-03-22T13:23:23;20.40;51.20
55313;DHT22;46892;45.668;11.756;2024-03-22T13:25:49;20.40;50.50
55313;DHT22;46892;45.668;11.756;2024-03-22T13:28:15;20.30;51.20
55313;DHT22;46892;45.668;11.756;2024-03-22T13:30:45;20.40;51.70
55313;DHT22;46892;45.668;11.756;2024-03-22T13:33:11;20.50;52.10
55313;DHT22;46892;45.668;11.756;2024-03-22T13:35:37;20.50;52.70
55313;DHT22;46892;45.668;11.756;2024-03-22T13:38:03;20.50;51.70
55313;DHT22;46892;45.668;11.756;2024-03-22T13:40:29;20.50;51.90
55313;DHT22;46892;45.668;11.756;2024-03-22T13:42:55;20.50;51.50
55313;DHT22;46892;45.668;11.756;2024-03-22T13:45:21;20.40;51.70
55313;DHT22;46892;45.668;11.756;2024-03-22T13:47:47;20.30;52.40
55313;DHT22;46892;45.668;11.756;2024-03-22T13:50:13;20.40;52.00
55313;DHT22;46892;45.668;11.756;2024-03-22T13:52:39;20.30;51.50
55313;DHT22;46892;45.668;11.756;2024-03-22T13:55:05;20.30;53.40
55313;DHT22;46892;45.668;11.756;2024-03-22T13:57:31;20.30;53.60
55313;DHT22;46892;45.668;11.756;2024-03-22T13:59:57;20.30;52.30
55313;DHT22;46892;45.668;11.756;2024-03-22T14:02:23;20.30;50.90
55313;DHT22;46892;45.668;11.756;2024-03-22T14:04:49;20.30;51.90
55313;DHT22;46892;45.668;11.756;2024-03-22T14:07:14;20.20;52.30
55313;DHT22;46892;45.668;11.756;2024-03-22T14:09:40;20.20;51.00
55313;DHT22;46892;45.668;11.756;2024-03-22T14:12:08;20.10;51.20
55313;DHT22;46892;45.668;11.756;2024-03-22T14:14:34;20.10;50.40
55313;DHT22;46892;45.668;11.756;2024-03-22T14:17:00;20.00;50.00
55313;DHT22;46892;45.668;11.756;2024-03-22T14:19:26;20.00;52.30
55313;DHT22;46892;45.668;11.756;2024-03-22T14:21:52;20.00;50.00
55313;DHT22;46892;45.668;11.756;2024-03-22T14:24:17;20.00;50.30
55313;DHT22;46892;45.668;11.756;2024-03-22T14:26:43;20.00;50.20
55313;DHT22;46892;45.668;11.756;2024-03-22T14:29:09;20.00;51.60
55313;DHT22;46892;45.668;11.756;2024-03-22T14:31:36;20.00;51.60
55313;DHT22;46892;45.668;11.756;2024-03-22T14:34:02;19.80;51.40
55313;DHT22;46892;45.668;11.756;2024-03-22T14:36:28;19.70;50.50
55313;DHT22;46892;45.668;11.756;2024-03-22T14:38:53;19.70;51.30
55313;DHT22;46892;45.668;11.756;2024-03-22T14:41:19;19.60;50.80
55313;DHT22;46892;45.668;11.756;2024-03-22T14:43:45;19.50;51.70
55313;DHT22;46892;45.668;11.756;2024-03-22T14:46:11;19.50;54.40
55313;DHT22;46892;45.668;11.756;2024-03-22T14:48:37;19.50;53.30
55313;DHT22;46892;45.668;11.756;2024-03-22T14:51:03;19.50;54.90
55313;DHT22;46892;45.668;11.756;2024-03-22T14:53:29;19.40;53.20
55313;DHT22;46892;45.668;11.756;2024-03-22T14:56:01;19.50;55.10
55313;DHT22;46892;45.668;11.756;2024-03-22T14:58:32;19.50;53.70
55313;DHT22;46892;45.668;11.756;2024-03-22T15:01:01;19.40;51.80
55313;DHT22;46892;45.668;11.756;2024-03-22T15:03:27;19.40;51.40
55313;DHT22;46892;45.668;11.756;2024-03-22T15:05:54;19.40;51.40
55313;DHT22;46892;45.668;11.756;2024-03-22T15:08:21;19.30;53.40
55313;DHT22;46892;45.668;11.756;2024-03-22T15:10:47;19.30;50.30
55313;DHT22;46892;45.668;11.756;2024-03-22T15:13:14;19.30;50.70
55313;DHT22;46892;45.668;11.756;2024-03-22T15:15:40;19.30;51.20
55313;DHT22;46892;45.668;11.756;2024-03-22T15:18:07;19.20;50.10
55313;DHT22;46892;45.668;11.756;2024-03-22T15:20:33;19.20;51.50
55313;DHT22;46892;45.668;11.756;2024-03-22T15:22:59;19.20;52.70
55313;DHT22;46892;45.668;11.756;2024-03-22T15:25:24;19.20;52.60
55313;DHT22;46892;45.668;11.756;2024-03-22T15:27:51;19.20;54.00